Time;durP1;ratioP1;P1;durP2;ratioP2;P2;SDS_P1;SDS_P2;PMS_P1;PMS_P2;Temp;Humidity;BMP_temperature;BMP_pressure;BME280_temperature;BME280_humidity;BME280_pressure;Samples;Min_cycle;Max_cycle;Signal;HPM_P1;HPM_P2
2023/02/04 00:00:47;;;;;;;2.47;1.88;;;;;;;-0.36;86.21;102940.69;5070782;28;20046;-64
2023/02/04 00:03:14;;;;;;;3.53;1.83;;;;;;;-0.34;86.13;102942.31;5070717;28;20028;-64
2023/02/04 00:05:39;;;;;;;3.60;2.10;;;;;;;-0.27;85.27;102945.50;5069003;28;20051;-64
2023/02/04 00:08:06;;;;;;;5.40;2.42;;;;;;;-0.19;85.27;102964.50;5071885;28;20032;-64
2023/02/04 00:10:32;;;;;;;2.55;1.70;;;;;;;-0.09;84.51;102978.16;5039944;28;20116;-64
2023/02/04 00:12:57;;;;;;;3.45;1.90;;;;;;;-0.11;84.50;102970.25;5066293;28;20435;-64
2023/02/04 00:15:23;;;;;;;6.38;2.47;;;;;;;-0.16;84.52;102972.31;5036700;28;20048;-64
2023/02/04 00:17:48;;;;;;;3.95;2.13;;;;;;;-0.29;84.73;102973.84;5070539;28;20533;-64
2023/02/04 00:20:13;;;;;;;4.78;2.20;;;;;;;-0.18;84.32;102975.94;5078711;28;20052;-64
2023/02/04 00:22:39;;;;;;;3.75;2.00;;;;;;;-0.18;84.29;102981.25;5050772;28;1196793;-65
2023/02/04 00:25:05;;;;;;;3.83;1.85;;;;;;;-0.20;84.04;102991.03;5084774;28;20021;-64
2023/02/04 00:27:31;;;;;;;4.82;1.98;;;;;;;-0.26;84.06;102992.22;5087549;28;20024;-64
2023/02/04 00:29:57;;;;;;;3.10;2.00;;;;;;;-0.25;83.95;102996.56;5072207;28;20414;-64
2023/02/04 00:32:22;;;;;;;5.88;2.15;;;;;;;-0.21;83.95;102999.91;5074221;28;20031;-64
2023/02/04 00:34:48;;;;;;;3.33;1.83;;;;;;;-0.20;83.91;103001.63;5073250;28;20483;-64
2023/02/04 00:37:14;;;;;;;6.82;1.95;;;;;;;-0.22;83.78;103006.13;5073718;28;20116;-64
2023/02/04 00:39:39;;;;;;;3.40;1.77;;;;;;;-0.25;83.63;103007.13;5073929;28;20036;-64
2023/02/04 00:42:05;;;;;;;3.03;1.77;;;;;;;-0.45;83.28;102988.72;5071625;28;20462;-64
2023/02/04 00:44:30;;;;;;;3.72;1.95;;;;;;;-0.38;83.37;103016.59;5072270;28;20081;-64
2023/02/04 00:46:56;;;;;;;15.95;2.10;;;;;;;-0.44;83.50;103024.81;5071057;28;20112;-64
2023/02/04 00:49:21;;;;;;;3.30;1.70;;;;;;;-0.60;83.42;103006.16;5071064;28;20162;-64
2023/02/04 00:51:47;;;;;;;2.67;1.70;;;;;;;-0.58;83.88;103033.41;5070507;28;20039;-64
2023/02/04 00:54:16;;;;;;;5.53;1.85;;;;;;;-0.73;83.92;103017.34;5052455;28;20032;-64
2023/02/04 00:56:42;;;;;;;3.58;1.83;;;;;;;-0.53;83.82;103044.63;5070390;28;20016;-64
2023/02/04 00:59:07;;;;;;;3.45;1.70;;;;;;;-0.48;83.47;103055.84;5071938;28;20543;-64
2023/02/04 01:01:33;;;;;;;3.50;1.73;;;;;;;-0.56;83.57;103047.44;5071277;28;20059;-64
2023/02/04 01:03:58;;;;;;;4.15;1.95;;;;;;;-0.58;83.27;103050.13;5072038;28;20025;-64
2023/02/04 01:06:24;;;;;;;2.22;1.63;;;;;;;-0.66;83.58;103048.75;5072124;28;20017;-64
2023/02/04 01:08:49;;;;;;;3.85;1.70;;;;;;;-0.67;83.30;103066.41;5054125;28;20107;-64
2023/02/04 01:11:15;;;;;;;5.93;1.60;;;;;;;-0.72;83.74;103063.13;5071739;28;20028;-64
2023/02/04 01:13:43;;;;;;;4.90;1.58;;;;;;;-0.73;83.94;103066.69;5072002;28;20028;-64
2023/02/04 01:16:08;;;;;;;3.92;1.58;;;;;;;-0.73;84.25;103074.63;5073378;28;20048;-64
2023/02/04 01:18:34;;;;;;;4.72;1.73;;;;;;;-0.69;83.61;103078.00;5075387;28;20411;-64
2023/02/04 01:20:59;;;;;;;2.38;1.50;;;;;;;-0.66;83.81;103093.72;5089490;28;20039;-64
2023/02/04 01:23:25;;;;;;;3.30;1.55;;;;;;;-0.69;83.41;103089.44;5074329;28;20080;-64
2023/02/04 01:25:50;;;;;;;2.72;1.27;;;;;;;-0.73;83.56;103093.13;5074021;28;20029;-64
2023/02/04 01:28:15;;;;;;;3.72;1.70;;;;;;;-0.82;83.42;103088.28;5073153;28;20297;-64
2023/02/04 01:30:41;;;;;;;2.47;1.20;;;;;;;-0.85;83.62;103097.19;5073908;28;20395;-64
2023/02/04 01:33:06;;;;;;;3.00;1.42;;;;;;;-0.90;83.67;103098.31;5075492;28;20503;-64
2023/02/04 01:35:32;;;;;;;4.25;1.65;;;;;;;-0.96;83.44;103102.97;5075628;28;20033;-64
2023/02/04 01:37:58;;;;;;;2.75;1.30;;;;;;;-0.94;84.05;103110.81;5075293;28;20040;-64
2023/02/04 01:40:23;;;;;;;3.53;1.38;;;;;;;-0.90;83.58;103112.38;5075329;28;20024;-64
2023/02/04 01:42:50;;;;;;;4.32;1.73;;;;;;;-0.96;83.28;103116.19;5093167;28;20036;-65
2023/02/04 01:45:15;;;;;;;4.03;1.70;;;;;;;-1.08;83.94;103127.28;5084860;28;20464;-64
2023/02/04 01:47:41;;;;;;;4.82;1.63;;;;;;;-1.22;84.02;103132.31;5074112;28;20075;-64
2023/02/04 01:50:11;;;;;;;4.53;1.50;;;;;;;-1.22;84.10;103129.66;5077506;28;20101;-64
2023/02/04 01:52:38;;;;;;;4.88;1.45;;;;;;;-1.23;84.47;103141.13;5075620;28;20087;-64
2023/02/04 01:55:10;;;;;;;2.50;1.50;;;;;;;-1.15;83.88;103144.31;5076857;28;20028;-64
2023/02/04 01:57:35;;;;;;;4.90;1.13;;;;;;;-1.17;83.86;103146.16;5082687;28;20024;-64
2023/02/04 02:00:01;;;;;;;3.42;1.60;;;;;;;-1.17;83.43;103150.59;5080450;28;20046;-64
2023/02/04 02:02:49;;;;;;;4.25;1.65;;;;;;;-1.18;83.93;103155.00;5074541;28;20044;-64
2023/02/04 02:05:22;;;;;;;5.40;1.40;;;;;;;-1.25;83.55;103164.97;5074945;28;20028;-65
2023/02/04 02:07:48;;;;;;;2.20;1.10;;;;;;;-1.32;83.34;103152.97;5075243;28;20070;-64
2023/02/04 02:10:15;;;;;;;2.55;1.25;;;;;;;-1.34;83.36;103153.94;5076647;28;20013;-64
2023/02/04 02:12:41;;;;;;;4.45;1.30;;;;;;;-1.25;83.52;103178.19;5079898;28;20387;-64
2023/02/04 02:15:08;;;;;;;3.33;1.38;;;;;;;-1.24;83.31;103192.25;5057337;28;20032;-64
2023/02/04 02:17:34;;;;;;;3.15;1.40;;;;;;;-1.29;82.97;103186.28;5075642;28;20103;-64
2023/02/04 02:20:00;;;;;;;4.50;1.30;;;;;;;-1.51;83.18;103173.13;5073746;28;20087;-64
2023/02/04 02:22:31;;;;;;;3.95;1.33;;;;;;;-1.41;83.28;103198.22;5072349;28;20052;-65
2023/02/04 02:24:56;;;;;;;3.05;1.30;;;;;;;-1.48;83.09;103208.19;5074060;28;20031;-64
2023/02/04 02:27:22;;;;;;;4.63;1.70;;;;;;;-1.45;82.76;103209.84;5074731;28;20024;-64
2023/02/04 02:29:48;;;;;;;3.83;1.25;;;;;;;-1.46;82.60;103223.94;5073359;28;20024;-64
2023/02/04 02:32:14;;;;;;;2.67;1.20;;;;;;;-1.53;82.77;103231.25;5074477;28;20550;-64
2023/02/04 02:34:41;;;;;;;2.35;1.33;;;;;;;-1.60;83.04;103242.97;5073874;28;20068;-64
2023/02/04 02:37:10;;;;;;;3.45;1.40;;;;;;;-1.61;82.86;103243.91;5073694;28;20116;-64
2023/02/04 02:39:41;;;;;;;5.18;1.50;;;;;;;-1.81;83.00;103223.56;5072784;28;20037;-63
2023/02/04 02:42:07;;;;;;;3.92;1.38;;;;;;;-1.72;82.55;103254.91;5073622;28;20029;-64
2023/02/04 02:44:32;;;;;;;2.95;1.35;;;;;;;-1.75;82.54;103264.72;5073650;28;20055;-64
2023/02/04 02:46:59;;;;;;;2.63;1.10;;;;;;;-1.72;83.13;103275.16;5072174;28;20449;-64
2023/02/04 02:49:26;;;;;;;3.08;1.27;;;;;;;-1.89;82.71;103246.75;5073395;28;20040;-64
2023/02/04 02:51:52;;;;;;;3.33;1.27;;;;;;;-1.77;82.58;103277.09;5071765;28;20066;-64
2023/02/04 02:54:25;;;;;;;2.80;1.25;;;;;;;-1.84;82.74;103280.88;5073243;28;20028;-64
2023/02/04 02:56:52;;;;;;;3.00;1.30;;;;;;;-1.86;83.02;103277.44;5073011;28;20112;-63
2023/02/04 02:59:17;;;;;;;3.47;1.42;;;;;;;-1.92;83.02;103279.41;5073186;28;20107;-64
2023/02/04 03:01:47;;;;;;;4.10;1.38;;;;;;;-1.95;82.88;103287.44;5071036;28;20823;-64
2023/02/04 03:04:13;;;;;;;4.07;1.10;;;;;;;-1.91;82.56;103309.28;5071978;28;20076;-64
2023/02/04 03:06:39;;;;;;;2.67;1.20;;;;;;;-1.92;82.80;103310.19;5071659;28;20142;-64
2023/02/04 03:09:04;;;;;;;2.60;1.23;;;;;;;-1.98;83.07;103316.56;5072795;28;20455;-64
2023/02/04 03:11:31;;;;;;;3.25;1.40;;;;;;;-2.03;83.07;103315.84;5071049;28;20059;-65
2023/02/04 03:14:00;;;;;;;2.88;1.45;;;;;;;-2.02;82.89;103317.59;5070459;28;20127;-64
2023/02/04 03:16:28;;;;;;;3.20;1.48;;;;;;;-2.05;82.76;103320.34;5072584;28;20031;-65
2023/02/04 03:18:53;;;;;;;2.67;1.30;;;;;;;-2.05;83.37;103322.09;5055426;28;20487;-64
2023/02/04 03:21:19;;;;;;;5.90;1.30;;;;;;;-2.04;82.74;103332.63;5071760;28;20066;-64
2023/02/04 03:23:45;;;;;;;3.60;1.40;;;;;;;-2.05;82.73;103327.38;5071797;28;20033;-65
2023/02/04 03:26:11;;;;;;;4.38;1.50;;;;;;;-2.03;82.96;103336.97;5054562;28;20013;-64
2023/02/04 03:28:41;;;;;;;2.78;1.27;;;;;;;-1.98;83.16;103348.22;5073539;28;20112;-64
2023/02/04 03:31:06;;;;;;;4.18;1.50;;;;;;;-2.05;82.73;103353.75;5073209;28;20055;-65
2023/02/04 03:33:34;;;;;;;3.10;1.48;;;;;;;-2.19;82.89;103362.16;5073701;28;20480;-64
2023/02/04 03:35:59;;;;;;;3.80;1.50;;;;;;;-2.26;83.33;103371.19;5071562;28;20123;-64
2023/02/04 03:38:25;;;;;;;2.22;1.38;;;;;;;-2.25;83.17;103380.84;5083942;28;20048;-64
2023/02/04 03:40:50;;;;;;;4.00;1.60;;;;;;;-2.32;83.14;103366.13;5093517;28;20028;-64
2023/02/04 03:43:16;;;;;;;4.88;1.13;;;;;;;-2.10;83.21;103384.72;5093613;28;20086;-64
2023/02/04 03:45:41;;;;;;;3.42;1.13;;;;;;;-2.38;82.59;103354.91;5071860;28;20362;-64
2023/02/04 03:48:07;;;;;;;4.80;1.48;;;;;;;-2.13;83.38;103399.75;5072773;28;20514;-65
2023/02/04 03:50:32;;;;;;;2.58;1.10;;;;;;;-2.10;83.02;103392.66;5075809;28;20054;-64
2023/02/04 03:52:57;;;;;;;4.40;1.33;;;;;;;-2.05;82.78;103403.88;5052446;28;20032;-65
2023/02/04 03:55:25;;;;;;;2.58;1.23;;;;;;;-2.07;82.49;103416.28;5050746;28;20037;-64
2023/02/04 03:57:51;;;;;;;5.10;1.60;;;;;;;-2.09;82.95;103411.03;5050982;28;20051;-64
2023/02/04 04:00:16;;;;;;;4.10;1.50;;;;;;;-2.08;82.39;103425.13;5051321;28;20029;-64
2023/02/04 04:02:41;;;;;;;3.75;1.20;;;;;;;-2.19;82.65;103436.88;5051945;28;20036;-65
2023/02/04 04:05:08;;;;;;;4.68;1.80;;;;;;;-2.31;82.65;103428.53;5053728;28;20034;-64
2023/02/04 04:07:36;;;;;;;2.47;1.10;;;;;;;-2.23;82.97;103442.31;5053084;28;20040;-64
2023/02/04 04:10:02;;;;;;;2.67;1.20;;;;;;;-2.20;82.99;103448.34;5053557;28;20033;-64
2023/02/04 04:12:27;;;;;;;3.83;1.27;;;;;;;-2.15;82.45;103448.22;5052847;28;20033;-65
2023/02/04 04:14:52;;;;;;;3.03;1.27;;;;;;;-2.12;82.61;103458.63;5054324;28;20360;-64
2023/02/04 04:17:18;;;;;;;2.97;1.13;;;;;;;-2.11;82.71;103464.78;5053508;28;20056;-65
2023/02/04 04:19:43;;;;;;;2.83;1.30;;;;;;;-2.15;82.39;103469.31;5052571;28;20116;-64
2023/02/04 04:22:09;;;;;;;3.50;1.35;;;;;;;-2.21;82.62;103472.16;5050113;28;20045;-64
2023/02/04 04:24:35;;;;;;;4.45;1.25;;;;;;;-2.20;82.32;103476.50;5050813;28;20017;-64
2023/02/04 04:27:01;;;;;;;3.22;1.17;;;;;;;-2.21;82.74;103488.84;5052210;28;20020;-65
2023/02/04 04:29:26;;;;;;;2.53;1.10;;;;;;;-2.19;82.56;103483.50;5050929;28;20435;-65
2023/02/04 04:31:52;;;;;;;2.65;1.10;;;;;;;-2.19;82.42;103494.91;5050541;28;20033;-64
2023/02/04 04:34:17;;;;;;;2.60;0.98;;;;;;;-2.34;82.81;103470.81;5051629;28;20386;-64
2023/02/04 04:36:42;;;;;;;3.95;1.25;;;;;;;-2.05;82.94;103485.66;5050230;28;20025;-64
2023/02/04 04:39:08;;;;;;;2.38;1.00;;;;;;;-2.08;82.43;103472.59;5050051;28;20452;-64
2023/02/04 04:41:33;;;;;;;2.03;1.00;;;;;;;-2.00;82.32;103497.81;5050290;28;20041;-64
2023/02/04 04:43:59;;;;;;;3.63;1.20;;;;;;;-2.06;82.76;103498.00;5051279;28;20391;-65
2023/02/04 04:46:24;;;;;;;5.28;1.15;;;;;;;-2.11;82.67;103505.22;5050256;28;20376;-64
2023/02/04 04:48:49;;;;;;;2.42;1.00;;;;;;;-2.15;83.11;103507.09;5051455;28;20037;-65
2023/02/04 04:51:15;;;;;;;4.85;1.05;;;;;;;-2.33;82.80;103476.03;5053038;28;20624;-65
2023/02/04 04:53:40;;;;;;;4.60;1.00;;;;;;;-2.21;82.40;103509.94;5053646;28;20468;-65
2023/02/04 04:56:06;;;;;;;3.65;0.80;;;;;;;-2.25;82.79;103499.50;5054518;28;20053;-65
2023/02/04 04:58:31;;;;;;;2.00;0.90;;;;;;;-2.32;82.93;103506.75;5055375;28;20143;-65
2023/02/04 05:00:57;;;;;;;2.55;1.20;;;;;;;-2.36;82.37;103508.63;5054768;28;20135;-65
2023/02/04 05:03:22;;;;;;;3.13;0.93;;;;;;;-2.42;82.43;103518.50;5053254;28;20075;-65
2023/02/04 05:05:49;;;;;;;2.22;1.00;;;;;;;-2.49;82.30;103512.56;5036689;28;20365;-65
2023/02/04 05:08:15;;;;;;;5.93;1.08;;;;;;;-2.56;82.36;103516.31;5054925;28;20063;-65
2023/02/04 05:10:42;;;;;;;5.18;1.05;;;;;;;-2.61;82.89;103524.38;5053121;28;20040;-65
2023/02/04 05:13:07;;;;;;;2.85;1.02;;;;;;;-2.68;82.39;103521.94;5053402;28;20383;-65
2023/02/04 05:15:33;;;;;;;1.98;1.00;;;;;;;-2.74;82.84;103519.53;5054679;28;20028;-65
2023/02/04 05:17:58;;;;;;;2.33;0.80;;;;;;;-2.79;82.85;103527.53;5036667;28;20033;-65
2023/02/04 05:20:24;;;;;;;3.28;0.95;;;;;;;-2.84;82.51;103526.84;5053973;28;20098;-65
2023/02/04 05:22:49;;;;;;;3.08;0.70;;;;;;;-2.90;82.31;103535.78;5054769;28;20061;-65
2023/02/04 05:25:15;;;;;;;3.60;1.08;;;;;;;-2.96;82.27;103535.09;5053213;28;20078;-65
2023/02/04 05:27:42;;;;;;;4.57;0.88;;;;;;;-3.02;82.35;103541.38;5039111;28;20604;-65
2023/02/04 05:30:10;;;;;;;2.85;0.80;;;;;;;-3.08;82.62;103544.19;5074253;28;20092;-65
2023/02/04 05:32:35;;;;;;;4.13;0.70;;;;;;;-3.09;82.85;103545.97;5075286;28;20025;-65
2023/02/04 05:35:01;;;;;;;2.08;0.80;;;;;;;-3.01;82.79;103547.50;5062474;28;20094;-65
2023/02/04 05:37:26;;;;;;;1.88;0.77;;;;;;;-3.07;82.48;103538.03;5055273;28;20071;-65
2023/02/04 05:39:52;;;;;;;3.55;0.95;;;;;;;-3.05;82.39;103546.72;5057388;28;20531;-65
2023/02/04 05:42:18;;;;;;;4.20;1.23;;;;;;;-3.21;82.41;103519.09;5055325;28;20087;-65
2023/02/04 05:44:44;;;;;;;1.98;0.70;;;;;;;-3.02;82.25;103549.28;5053289;28;20039;-65
2023/02/04 05:47:09;;;;;;;1.85;0.63;;;;;;;-3.08;82.11;103554.72;5053673;28;20033;-65
2023/02/04 05:49:34;;;;;;;3.90;1.00;;;;;;;-3.22;82.32;103552.47;5053935;28;20437;-65
2023/02/04 05:52:00;;;;;;;2.25;0.88;;;;;;;-3.31;82.27;103544.84;5053159;28;20543;-65
2023/02/04 05:54:25;;;;;;;4.47;1.10;;;;;;;-3.21;82.09;103564.75;5054584;28;20108;-64
2023/02/04 05:56:51;;;;;;;1.85;0.70;;;;;;;-3.22;82.36;103567.41;5052390;28;20467;-65
2023/02/04 05:59:16;;;;;;;5.20;0.80;;;;;;;-3.23;82.11;103573.59;5052738;28;20040;-65
2023/02/04 06:01:42;;;;;;;3.83;0.90;;;;;;;-3.39;81.92;103559.97;5053472;28;20452;-65
2023/02/04 06:04:08;;;;;;;1.80;0.80;;;;;;;-3.29;82.23;103589.56;5051556;28;20076;-65
2023/02/04 06:06:33;;;;;;;1.67;0.80;;;;;;;-3.32;82.34;103591.34;5051402;28;20025;-64
2023/02/04 06:08:58;;;;;;;2.35;0.82;;;;;;;-3.34;82.19;103593.19;5052970;28;20024;-65
2023/02/04 06:11:24;;;;;;;2.97;0.80;;;;;;;-3.41;81.99;103588.97;5053602;28;20509;-65
2023/02/04 06:13:49;;;;;;;1.45;0.90;;;;;;;-3.40;82.18;103597.75;5019690;28;20479;-65
2023/02/04 06:16:16;;;;;;;3.65;0.82;;;;;;;-3.42;81.79;103608.28;5053729;28;20029;-65
2023/02/04 06:18:41;;;;;;;2.47;1.00;;;;;;;-3.45;82.06;103615.41;5052686;28;20079;-64
2023/02/04 06:21:06;;;;;;;4.20;1.13;;;;;;;-3.48;82.11;103621.59;5057420;28;20029;-64
2023/02/04 06:23:33;;;;;;;3.83;1.60;;;;;;;-3.49;81.76;103622.53;5073584;28;20419;-64
2023/02/04 06:26:00;;;;;;;1.75;1.00;;;;;;;-3.52;82.10;103630.50;5055184;28;20021;-64
2023/02/04 06:28:25;;;;;;;1.98;0.80;;;;;;;-3.63;81.89;103622.00;5053063;28;20075;-65
2023/02/04 06:30:50;;;;;;;2.55;0.85;;;;;;;-3.62;81.80;103632.47;5036116;28;20479;-65
2023/02/04 06:33:16;;;;;;;3.33;0.85;;;;;;;-3.63;81.72;103629.91;5053805;28;20043;-65
2023/02/04 06:35:41;;;;;;;4.65;1.20;;;;;;;-3.77;81.63;103609.19;5053233;28;20029;-65
2023/02/04 06:38:06;;;;;;;2.25;1.40;;;;;;;-3.61;81.95;103635.97;5053516;28;20321;-65
2023/02/04 06:40:32;;;;;;;3.67;1.88;;;;;;;-3.63;81.91;103637.81;5035756;28;20108;-65
2023/02/04 06:42:57;;;;;;;1.75;0.90;;;;;;;-3.63;81.49;103653.59;5052009;28;20040;-65
2023/02/04 06:45:23;;;;;;;2.67;0.98;;;;;;;-3.88;81.64;103637.50;5053283;28;20033;-65
2023/02/04 06:47:48;;;;;;;3.50;1.23;;;;;;;-3.73;81.93;103662.59;5052764;28;20155;-65
2023/02/04 06:50:17;;;;;;;2.13;0.85;;;;;;;-3.70;81.95;103676.56;5051610;28;20035;-65
2023/02/04 06:52:47;;;;;;;1.92;1.08;;;;;;;-3.67;81.82;103673.84;5052906;28;20048;-65
2023/02/04 06:55:16;;;;;;;3.40;1.08;;;;;;;-3.58;82.24;103664.84;5051621;28;20049;-65
2023/02/04 06:57:42;;;;;;;3.13;1.20;;;;;;;-3.51;81.69;103669.06;5052695;28;20187;-65
2023/02/04 07:00:09;;;;;;;3.97;1.40;;;;;;;-3.65;81.75;103650.13;5051930;28;20132;-65
2023/02/04 07:02:36;;;;;;;3.38;1.30;;;;;;;-3.49;82.17;103674.31;5051409;28;20033;-65
2023/02/04 07:05:02;;;;;;;6.22;1.30;;;;;;;-3.45;82.02;103666.28;5035286;28;20116;-65
2023/02/04 07:07:27;;;;;;;2.65;0.90;;;;;;;-3.56;82.09;103642.00;5053013;28;20448;-64
2023/02/04 07:09:52;;;;;;;4.22;1.00;;;;;;;-3.37;81.80;103674.88;5057691;28;20036;-64
2023/02/04 07:12:18;;;;;;;4.45;1.17;;;;;;;-3.52;82.02;103675.25;5056317;28;20009;-64
2023/02/04 07:14:43;;;;;;;3.13;1.60;;;;;;;-3.70;81.74;103678.31;5072476;28;20021;-65
2023/02/04 07:17:09;;;;;;;6.90;2.53;;;;;;;-4.08;81.76;103659.00;5062200;28;20040;-65
2023/02/04 07:19:35;;;;;;;8.75;3.00;;;;;;;-4.12;81.81;103679.25;5054066;28;20021;-65
2023/02/04 07:22:01;;;;;;;6.55;3.50;;;;;;;-4.15;81.99;103684.56;5053343;28;20048;-65
2023/02/04 07:24:27;;;;;;;7.28;3.63;;;;;;;-4.06;81.77;103686.16;5053666;28;20033;-64
2023/02/04 07:26:52;;;;;;;4.90;2.65;;;;;;;-3.96;81.90;103698.19;5054059;28;20024;-64
2023/02/04 07:29:18;;;;;;;5.60;2.85;;;;;;;-3.96;81.67;103697.34;5053507;28;20336;-64
2023/02/04 07:31:44;;;;;;;4.22;1.83;;;;;;;-3.86;81.84;103699.72;5051318;28;20048;-64
2023/02/04 07:34:12;;;;;;;4.22;2.00;;;;;;;-3.73;81.81;103707.34;5050689;28;20033;-65
2023/02/04 07:36:37;;;;;;;27.90;13.15;;;;;;;-3.63;82.08;103701.81;5051707;28;20071;-65
2023/02/04 07:39:03;;;;;;;17.63;9.07;;;;;;;-3.45;81.62;103708.41;5051987;28;20086;-65
2023/02/04 07:41:29;;;;;;;7.30;4.32;;;;;;;-3.29;81.95;103715.94;5051639;28;20436;-65
2023/02/04 07:43:54;;;;;;;14.18;8.27;;;;;;;-3.17;81.72;103710.38;5052376;28;20044;-65
2023/02/04 07:46:20;;;;;;;10.65;5.68;;;;;;;-3.04;81.56;103708.31;5051783;28;20116;-65
2023/02/04 07:48:45;;;;;;;7.50;3.35;;;;;;;-3.08;81.63;103692.56;5053027;28;20483;-65
2023/02/04 07:51:11;;;;;;;5.40;2.90;;;;;;;-2.88;81.17;103712.25;5053073;28;20087;-65
2023/02/04 07:53:36;;;;;;;6.72;3.25;;;;;;;-2.78;81.45;103716.38;5052724;28;20115;-65
2023/02/04 07:56:02;;;;;;;9.95;4.97;;;;;;;-2.64;81.77;103726.56;5050898;28;20028;-64
2023/02/04 07:58:27;;;;;;;6.90;4.00;;;;;;;-2.44;80.82;103731.28;5052137;28;20045;-65
2023/02/04 08:00:53;;;;;;;9.00;4.90;;;;;;;-2.38;81.04;103716.16;5050395;28;20079;-64
2023/02/04 08:03:18;;;;;;;8.85;4.32;;;;;;;-2.17;81.00;103732.28;5035244;28;20036;-64
2023/02/04 08:05:44;;;;;;;4.40;2.83;;;;;;;-2.19;80.92;103737.56;5050879;28;20368;-65
2023/02/04 08:08:09;;;;;;;9.90;3.30;;;;;;;-2.23;81.32;103735.09;5051701;28;20035;-64
2023/02/04 08:10:34;;;;;;;7.15;4.38;;;;;;;-2.26;81.35;103736.03;5050724;28;20369;-65
2023/02/04 08:13:00;;;;;;;11.77;5.15;;;;;;;-2.34;81.60;103739.81;5050324;28;20090;-65
2023/02/04 08:15:25;;;;;;;17.30;7.50;;;;;;;-2.33;82.67;103734.47;5051680;28;20522;-64
2023/02/04 08:17:50;;;;;;;20.73;12.93;;;;;;;-2.18;82.10;103747.25;5050145;28;20496;-65
2023/02/04 08:20:17;;;;;;;10.93;5.75;;;;;;;-2.06;82.09;103755.69;5051441;28;20022;-64
2023/02/04 08:22:43;;;;;;;6.95;3.28;;;;;;;-2.24;82.13;103730.72;5051591;28;20083;-66
2023/02/04 08:25:10;;;;;;;9.05;3.97;;;;;;;-2.06;82.45;103759.19;5050635;28;20056;-64
2023/02/04 08:27:35;;;;;;;9.23;4.28;;;;;;;-2.02;81.96;103760.84;5055455;28;20480;-64
2023/02/04 08:30:01;;;;;;;11.77;6.25;;;;;;;-1.93;81.40;103784.31;5054947;28;20565;-64
2023/02/04 08:32:28;;;;;;;8.73;4.65;;;;;;;-1.73;81.71;103777.59;5055531;28;20033;-65
2023/02/04 08:34:53;;;;;;;8.65;4.55;;;;;;;-1.55;81.38;103781.47;5038259;28;20025;-64
2023/02/04 08:37:19;;;;;;;11.88;6.25;;;;;;;-1.50;81.11;103785.66;5054025;28;20423;-64
2023/02/04 08:39:45;;;;;;;6.07;2.97;;;;;;;-1.59;80.94;103767.50;5055471;28;20108;-64
2023/02/04 08:42:11;;;;;;;7.30;3.38;;;;;;;-1.62;81.03;103741.19;5055363;28;20051;-65
2023/02/04 08:44:37;;;;;;;5.45;3.40;;;;;;;-1.28;81.18;103772.66;5053071;28;20033;-65
2023/02/04 08:47:02;;;;;;;7.78;4.20;;;;;;;-1.01;81.19;103799.13;5055529;28;20060;-64
2023/02/04 08:49:29;;;;;;;10.45;5.15;;;;;;;-1.02;80.74;103808.81;5055750;28;20029;-65
2023/02/04 08:51:55;;;;;;;7.80;3.47;;;;;;;-1.12;80.26;103790.69;5055107;28;20112;-64
2023/02/04 08:54:20;;;;;;;8.07;3.45;;;;;;;-0.92;80.72;103814.69;5058964;28;20111;-65
2023/02/04 08:56:45;;;;;;;5.65;2.90;;;;;;;-0.91;80.82;103805.81;5075501;28;20030;-65
2023/02/04 08:59:11;;;;;;;6.20;2.85;;;;;;;-0.95;81.05;103806.84;5075896;28;20032;-65
2023/02/04 09:01:36;;;;;;;4.85;2.58;;;;;;;-0.99;81.06;103808.72;5056134;28;20035;-65
2023/02/04 09:04:02;;;;;;;6.45;2.70;;;;;;;-0.98;81.25;103799.00;5073198;28;20033;-66
2023/02/04 09:06:27;;;;;;;5.82;2.90;;;;;;;-0.84;80.83;103803.84;5056805;28;20111;-64
2023/02/04 09:08:53;;;;;;;5.60;2.83;;;;;;;-0.76;80.79;103807.09;5054768;28;20392;-65
2023/02/04 09:11:18;;;;;;;5.53;3.00;;;;;;;-0.67;80.50;103809.41;5055500;28;20214;-65
2023/02/04 09:13:44;;;;;;;6.97;3.05;;;;;;;-0.57;80.48;103813.47;5053528;28;20396;-65
2023/02/04 09:16:09;;;;;;;8.35;3.30;;;;;;;-0.59;80.81;103828.56;5053596;28;20040;-65
2023/02/04 09:18:35;;;;;;;32.33;18.50;;;;;;;-0.55;80.77;103821.38;5054945;28;20037;-65
2023/02/04 09:21:01;;;;;;;11.10;7.10;;;;;;;-0.47;80.61;103828.09;5054588;28;20029;-65
2023/02/04 09:23:26;;;;;;;10.52;5.28;;;;;;;-0.32;80.72;103823.22;5053083;28;20037;-64
2023/02/04 09:25:52;;;;;;;8.77;3.83;;;;;;;-0.20;80.56;103830.69;5054591;28;20075;-65
2023/02/04 09:28:17;;;;;;;6.82;3.35;;;;;;;-0.20;80.08;103838.66;5054782;28;20040;-65
2023/02/04 09:30:45;;;;;;;5.78;2.75;;;;;;;-0.21;80.11;103836.91;5056049;28;20025;-65
2023/02/04 09:33:12;;;;;;;5.97;2.75;;;;;;;-0.29;80.06;103850.44;5056093;28;20108;-66
2023/02/04 09:35:38;;;;;;;7.07;2.70;;;;;;;-0.29;80.51;103850.44;5055253;28;20041;-65
2023/02/04 09:38:03;;;;;;;6.05;2.47;;;;;;;-0.21;80.08;103849.28;5054888;28;20035;-65
2023/02/04 09:40:33;;;;;;;4.32;2.50;;;;;;;-0.16;80.30;103848.22;5053170;28;20028;-66
2023/02/04 09:43:00;;;;;;;5.22;2.45;;;;;;;-0.04;80.30;103855.72;5054235;28;20024;-65
2023/02/04 09:45:29;;;;;;;5.30;2.80;;;;;;;-0.07;80.17;103852.31;5052988;28;20021;-65
2023/02/04 09:48:01;;;;;;;3.72;2.00;;;;;;;0.02;80.48;103851.13;5053245;28;20029;-65
2023/02/04 09:50:30;;;;;;;5.82;2.70;;;;;;;0.15;80.22;103832.09;5052021;28;20049;-65
2023/02/04 09:52:59;;;;;;;6.03;2.50;;;;;;;0.21;80.22;103825.72;5053341;28;20024;-65
2023/02/04 09:55:34;;;;;;;5.10;2.35;;;;;;;0.13;79.89;103825.09;5052690;28;20079;-65
2023/02/04 09:58:00;;;;;;;8.30;2.50;;;;;;;0.10;80.34;103833.16;5053979;28;20068;-65
2023/02/04 10:00:29;;;;;;;6.05;2.63;;;;;;;0.06;80.41;103847.44;5053873;28;20037;-65
2023/02/04 10:02:59;;;;;;;7.07;2.50;;;;;;;0.09;80.69;103839.38;5052905;28;20513;-65
2023/02/04 10:05:29;;;;;;;7.78;2.08;;;;;;;0.30;80.28;103848.31;5054220;28;20033;-65
2023/02/04 10:07:55;;;;;;;5.95;2.53;;;;;;;-0.04;81.06;103844.25;5054089;28;20032;-65
2023/02/04 10:10:26;;;;;;;5.32;2.40;;;;;;;0.16;80.66;103844.41;5054267;28;20063;-65
2023/02/04 10:13:01;;;;;;;6.10;2.33;;;;;;;-0.12;80.65;103819.88;5052210;28;20144;-65
2023/02/04 10:15:27;;;;;;;;;;;;;;;0.18;80.10;103839.06;5054431;28;20021;-65
2023/02/04 10:18:06;;;;;;;6.38;2.60;;;;;;;0.30;80.40;103843.91;5054142;28;19919;-65
2023/02/04 10:20:33;;;;;;;5.35;2.22;;;;;;;0.07;80.41;103825.38;5053932;28;20062;-66
2023/02/04 10:22:58;;;;;;;4.10;2.42;;;;;;;0.01;82.02;103846.75;5053437;28;20483;-65
2023/02/04 10:25:25;;;;;;;5.95;2.40;;;;;;;0.09;81.82;103850.84;5052794;28;20063;-65
2023/02/04 10:27:59;;;;;;;6.20;2.45;;;;;;;0.22;81.96;103844.16;5056714;28;20055;-65
2023/02/04 10:30:34;;;;;;;6.35;1.92;;;;;;;0.29;81.80;103850.09;5064242;28;20048;-66
2023/02/04 10:33:11;;;;;;;6.38;2.47;;;;;;;0.41;81.59;103846.16;5064229;28;20089;-66
2023/02/04 10:35:44;;;;;;;7.40;2.38;;;;;;;0.51;81.28;103862.56;5053397;28;20033;-65
2023/02/04 10:38:10;;;;;;;7.57;3.00;;;;;;;0.52;81.12;103862.47;5057277;28;20157;-66
2023/02/04 10:40:36;;;;;;;6.07;2.90;;;;;;;0.43;80.85;103821.31;5057749;28;20577;-65
2023/02/04 10:43:09;;;;;;;5.78;2.85;;;;;;;0.77;80.24;103851.81;5053293;28;20567;-65
2023/02/04 10:45:35;;;;;;;8.85;3.30;;;;;;;0.85;80.17;103855.00;5053276;28;20032;-66
2023/02/04 10:48:00;;;;;;;5.90;3.03;;;;;;;0.91;79.96;103846.81;5051999;28;20396;-65
2023/02/04 10:50:28;;;;;;;9.48;5.18;;;;;;;0.84;80.10;103848.00;5034747;28;20049;-65
2023/02/04 10:54:28;;;;;;;11.23;5.70;;;;;;;0.97;79.54;103850.16;5051371;28;20040;-65
2023/02/04 10:55:44;;;;;;;10.80;5.18;;;;;;;1.22;79.06;103866.78;5054025;28;20029;-66
2023/02/04 10:58:13;;;;;;;10.15;5.57;;;;;;;1.31;78.95;103861.09;5035926;28;20029;-65
2023/02/04 11:00:40;;;;;;;8.93;4.93;;;;;;;1.16;78.61;103852.00;5053206;28;20028;-65
2023/02/04 11:03:29;;;;;;;9.82;4.90;;;;;;;1.44;78.21;103873.88;5054493;28;20265;-66
2023/02/04 11:05:59;;;;;;;10.75;5.30;;;;;;;1.53;78.22;103876.16;5052187;28;20025;-65
2023/02/04 11:08:35;;;;;;;7.72;4.50;;;;;;;1.38;78.42;103873.19;5051845;28;20485;-66
2023/02/04 11:11:26;;;;;;;7.60;4.30;;;;;;;1.37;78.14;103874.13;5052805;28;20108;-65
2023/02/04 11:13:53;;;;;;;9.25;5.20;;;;;;;1.44;78.30;103877.38;5048702;28;20059;-65
2023/02/04 11:16:22;;;;;;;7.80;4.95;;;;;;;1.54;78.24;103884.03;5052530;28;20571;-66
2023/02/04 11:18:55;;;;;;;8.23;5.13;;;;;;;1.53;78.36;103884.13;5051286;28;20462;-66
2023/02/04 11:21:25;;;;;;;10.02;5.53;;;;;;;1.52;77.48;103887.66;5053988;28;20033;-65
2023/02/04 11:24:09;;;;;;;12.20;5.53;;;;;;;1.36;77.80;103888.31;5051976;28;20554;-66